American Star — WDD7311 — position and weather

sailwx.info

Track history (hours):
 
Tides and Currents Weather Stations Pressure Air Temp Water Temp Dewpoint Dewpoint Depression Visibility Wind Speed Wind Dir Waves Ship Positions

American Star

Owner: American Cruise Lines, Inc, Delmar, DE. More information available from US FCC via Universal Licensing System and Coast Guard Vessel Documentation Center.

Last reported at 2015-Nov-08 16:28 UTC. Time now 2016-Feb-06 18:43 UTC.
Position N 38°54' W 076°25'.
Warning: this ship's position is months out of date.

Length 60 m; draft 2.1 m.

Type: Ship (hazmat cat C). MMSI: 367184740.

Date/timePositionNaut miles runAvg speedWind from/ knotsBaromVisibWave heightAir tempDewpointWater temp
2015-Nov-08 16:28N 38°54' W 076°25'910.2
2015-Nov-08 15:33N 39°04' W 076°23'9 9.2
2015-Nov-08 14:33N 39°12' W 076°29'7 0.4
2015-Nov-07 21:28N 39°17' W 076°36'7 8.1
2015-Nov-07 20:33N 39°12' W 076°29'9 9.0
2015-Nov-07 19:33N 39°04' W 076°23'7 7.1
2015-Nov-07 18:33N 38°57' W 076°26'2 2.1
2015-Nov-07 17:33N 38°58' W 076°28'0 0.0
2015-Nov-07 16:31N 38°58' W 076°28'0 0.0
2015-Nov-07 15:33N 38°58' W 076°28'0 0.0
2015-Nov-07 14:33N 38°58' W 076°28'4 4.2
2015-Nov-07 13:34N 38°55' W 076°25'6 6.4
2015-Nov-07 12:34N 38°50' W 076°19'6 5.7
2015-Nov-07 11:33N 38°48' W 076°13'1 0.1
2015-Nov-07 04:32N 38°47' W 076°13'0 0.0
2015-Nov-07 03:32N 38°47' W 076°13'4 0.1
2015-Nov-05 21:19N 38°51' W 076°14'8 7.2
2015-Nov-05 20:12N 38°48' W 076°23'20 1.4
2015-Nov-05 06:10N 38°34' W 076°04'0 0.0
2015-Nov-05 05:25N 38°34' W 076°04'0 0.0
2015-Nov-05 04:31N 38°34' W 076°04'0 0.0
2015-Nov-05 03:28N 38°34' W 076°04'0 0.0
2015-Nov-05 02:28N 38°34' W 076°04'0 0.0
2015-Nov-05 01:28N 38°34' W 076°04'0 0.0
2015-Nov-05 00:13N 38°34' W 076°04'0 0.0
2015-Nov-04 23:22N 38°34' W 076°04'0 0.0
2015-Nov-04 22:22N 38°34' W 076°04'13 2.4
2015-Nov-04 17:08N 38°37' W 076°20'27 9.2
2015-Nov-04 14:14N 38°12' W 076°09'12 7.0
2015-Nov-04 12:33N 38°05' W 075°58'7 7.2
2015-Nov-04 11:33N 37°58' W 075°54'9 0.4
2015-Nov-03 15:10N 37°50' W 075°57'6 9.3
2015-Nov-03 14:33N 37°44' W 075°59'17 0.5
2015-Nov-02 04:28N 37°58' W 076°13'10 9.1
2015-Nov-02 03:23N 38°07' W 076°16'42 8.7
2015-Nov-01 22:33N 38°48' W 076°26'9 9.3
2015-Nov-01 21:33N 38°57' W 076°24'9 9.0
2015-Nov-01 20:33N 39°06' W 076°24'9 9.0
2015-Nov-01 19:33N 39°13' W 076°32'5 0.2
2015-Oct-31 11:18N 39°17' W 076°36'5 7.1
2015-Oct-31 10:33N 39°13' W 076°32'1010.2
2015-Oct-31 09:33N 39°09' W 076°20'1211.6
2015-Oct-31 08:33N 39°19' W 076°13'1211.9
2015-Oct-31 07:33N 39°26' W 076°00'1010.4
2015-Oct-31 06:33N 39°32' W 075°49'10 9.8
2015-Oct-31 05:33N 39°33' W 075°37'9 9.0
2015-Oct-31 04:33N 39°25' W 075°31'1313.2
2015-Oct-31 03:33N 39°15' W 075°20'1111.4
2015-Oct-31 02:33N 39°06' W 075°12'1312.8
2015-Oct-31 01:33N 38°54' W 075°05'1010.3
2015-Oct-31 00:33N 38°49' W 074°54'4711.6
2015-Oct-30 20:29N 39°25' W 074°13'1111.7
2015-Oct-30 19:33N 39°34' W 074°06'1211.9
2015-Oct-30 18:33N 39°44' W 073°59'4011.9
2015-Oct-30 15:14N 40°24' W 073°52'7 9.9
2015-Oct-30 14:33N 40°30' W 073°56'9 9.5
2015-Oct-30 13:33N 40°37' W 074°03'8 7.4
2015-Oct-30 12:32N 40°45' W 074°01'0 0.0
2015-Oct-30 11:32N 40°45' W 074°01'0 0.0
2015-Oct-30 10:32N 40°45' W 074°01'0 0.0
2015-Oct-30 09:32N 40°45' W 074°01'0 0.0
2015-Oct-30 08:32N 40°45' W 074°01'0 0.0
2015-Oct-30 07:32N 40°45' W 074°01'0 0.0
2015-Oct-30 06:32N 40°45' W 074°01'0 0.0
2015-Oct-30 05:32N 40°45' W 074°01'3 2.9
2015-Oct-30 04:33N 40°47' W 073°59'  
Track history (hours):
 
Tides and Currents Weather Stations Pressure Air Temp Water Temp Dewpoint Dewpoint Depression Visibility Wind Speed Wind Dir Waves Ship Positions

American Star

Owner: American Cruise Lines, Inc, Delmar, DE. More information available from US FCC via Universal Licensing System and Coast Guard Vessel Documentation Center.

Last reported at 2015-Nov-08 16:28 UTC. Time now 2016-Feb-06 18:43 UTC.
Position N 38°54' W 076°25'.
Warning: this ship's position is months out of date.

Length 60 m; draft 2.1 m.

Type: Ship (hazmat cat C). MMSI: 367184740.

Date/timePositionNaut miles runAvg speedWind from/ knotsBaromVisibWave heightAir tempDewpointWater temp
2015-Nov-08 16:28N 38°54' W 076°25'910.2
2015-Nov-08 15:33N 39°04' W 076°23'9 9.2
2015-Nov-08 14:33N 39°12' W 076°29'7 0.4
2015-Nov-07 21:28N 39°17' W 076°36'7 8.1
2015-Nov-07 20:33N 39°12' W 076°29'9 9.0
2015-Nov-07 19:33N 39°04' W 076°23'7 7.1
2015-Nov-07 18:33N 38°57' W 076°26'2 2.1
2015-Nov-07 17:33N 38°58' W 076°28'0 0.0
2015-Nov-07 16:31N 38°58' W 076°28'0 0.0
2015-Nov-07 15:33N 38°58' W 076°28'0 0.0
2015-Nov-07 14:33N 38°58' W 076°28'4 4.2
2015-Nov-07 13:34N 38°55' W 076°25'6 6.4
2015-Nov-07 12:34N 38°50' W 076°19'6 5.7
2015-Nov-07 11:33N 38°48' W 076°13'1 0.1
2015-Nov-07 04:32N 38°47' W 076°13'0 0.0
2015-Nov-07 03:32N 38°47' W 076°13'4 0.1
2015-Nov-05 21:19N 38°51' W 076°14'8 7.2
2015-Nov-05 20:12N 38°48' W 076°23'20 1.4
2015-Nov-05 06:10N 38°34' W 076°04'0 0.0
2015-Nov-05 05:25N 38°34' W 076°04'0 0.0
2015-Nov-05 04:31N 38°34' W 076°04'0 0.0
2015-Nov-05 03:28N 38°34' W 076°04'0 0.0
2015-Nov-05 02:28N 38°34' W 076°04'0 0.0
2015-Nov-05 01:28N 38°34' W 076°04'0 0.0
2015-Nov-05 00:13N 38°34' W 076°04'0 0.0
2015-Nov-04 23:22N 38°34' W 076°04'0 0.0
2015-Nov-04 22:22N 38°34' W 076°04'13 2.4
2015-Nov-04 17:08N 38°37' W 076°20'27 9.2
2015-Nov-04 14:14N 38°12' W 076°09'12 7.0
2015-Nov-04 12:33N 38°05' W 075°58'7 7.2
2015-Nov-04 11:33N 37°58' W 075°54'9 0.4
2015-Nov-03 15:10N 37°50' W 075°57'6 9.3
2015-Nov-03 14:33N 37°44' W 075°59'17 0.5
2015-Nov-02 04:28N 37°58' W 076°13'10 9.1
2015-Nov-02 03:23N 38°07' W 076°16'42 8.7
2015-Nov-01 22:33N 38°48' W 076°26'9 9.3
2015-Nov-01 21:33N 38°57' W 076°24'9 9.0
2015-Nov-01 20:33N 39°06' W 076°24'9 9.0
2015-Nov-01 19:33N 39°13' W 076°32'5 0.2
2015-Oct-31 11:18N 39°17' W 076°36'5 7.1
2015-Oct-31 10:33N 39°13' W 076°32'1010.2
2015-Oct-31 09:33N 39°09' W 076°20'1211.6
2015-Oct-31 08:33N 39°19' W 076°13'1211.9
2015-Oct-31 07:33N 39°26' W 076°00'1010.4
2015-Oct-31 06:33N 39°32' W 075°49'10 9.8
2015-Oct-31 05:33N 39°33' W 075°37'9 9.0
2015-Oct-31 04:33N 39°25' W 075°31'1313.2
2015-Oct-31 03:33N 39°15' W 075°20'1111.4
2015-Oct-31 02:33N 39°06' W 075°12'1312.8
2015-Oct-31 01:33N 38°54' W 075°05'1010.3
2015-Oct-31 00:33N 38°49' W 074°54'4711.6
2015-Oct-30 20:29N 39°25' W 074°13'1111.7
2015-Oct-30 19:33N 39°34' W 074°06'1211.9
2015-Oct-30 18:33N 39°44' W 073°59'4011.9
2015-Oct-30 15:14N 40°24' W 073°52'7 9.9
2015-Oct-30 14:33N 40°30' W 073°56'9 9.5
2015-Oct-30 13:33N 40°37' W 074°03'8 7.4
2015-Oct-30 12:32N 40°45' W 074°01'0 0.0
2015-Oct-30 11:32N 40°45' W 074°01'0 0.0
2015-Oct-30 10:32N 40°45' W 074°01'0 0.0
2015-Oct-30 09:32N 40°45' W 074°01'0 0.0
2015-Oct-30 08:32N 40°45' W 074°01'0 0.0
2015-Oct-30 07:32N 40°45' W 074°01'0 0.0
2015-Oct-30 06:32N 40°45' W 074°01'0 0.0
2015-Oct-30 05:32N 40°45' W 074°01'3 2.9
2015-Oct-30 04:33N 40°47' W 073°59'  

Dump ship's entire track history